Terminal Aerodrome Forecast
Issued by NWS Knoxville/Tri Cities, TN

Home | Current Version | Previous Version | Text Only | Print | Product List | Glossary On
Versions: 1 2 3 4 5 6 7 8 9 10 11 12 13 14 15 16 17 18 19 20 21
000
FTUS44 KMRX 020053 AAC
TAFTYS
TAF AMD
KTYS 020053Z 0201/0224 21010KT P6SM VCTS SCT050CB BKN100
     FM020300 22006KT P6SM SCT060 BKN250
     FM020900 22003KT 5SM BR SCT015 BKN150
     FM021300 22008KT P6SM SCT035 BKN120
     FM022100 23010KT P6SM VCTS SCT050CB OVC070=

USA.gov is the U.S. government's official web portal to all federal, state and local government web resources and services.